createdAt,value
2023-04-20T00:00:49.566Z,4.30
2023-04-20T00:03:21.313Z,4.20
2023-04-20T00:05:49.592Z,4.53
2023-04-20T00:08:19.724Z,3.75
2023-04-20T00:10:46.995Z,6.18
2023-04-20T00:13:13.883Z,5.40
2023-04-20T00:15:41.191Z,5.07
2023-04-20T00:18:08.131Z,5.10
2023-04-20T00:20:35.255Z,4.53
2023-04-20T00:23:03.588Z,3.37
2023-04-20T00:25:31.634Z,4.60
2023-04-20T00:27:58.661Z,2.85
2023-04-20T00:30:25.482Z,4.35
2023-04-20T00:32:52.549Z,5.80
2023-04-20T00:35:19.477Z,5.65
2023-04-20T00:37:46.268Z,4.03
2023-04-20T00:40:13.162Z,4.45
2023-04-20T00:42:42.950Z,3.25
2023-04-20T00:45:10.451Z,5.45
2023-04-20T00:47:37.327Z,3.72
2023-04-20T00:50:04.888Z,3.40
2023-04-20T00:52:32.818Z,3.65
2023-04-20T00:54:59.880Z,4.75
2023-04-20T00:57:28.068Z,5.13
2023-04-20T00:59:55.011Z,3.05
2023-04-20T01:02:22.144Z,4.07
2023-04-20T01:04:49.091Z,2.72
2023-04-20T01:07:16.242Z,3.63
2023-04-20T01:09:43.075Z,2.95
2023-04-20T01:12:11.161Z,4.87
2023-04-20T01:14:38.093Z,5.43
2023-04-20T01:17:06.094Z,3.20
2023-04-20T01:19:33.845Z,4.22
2023-04-20T01:22:00.689Z,5.97
2023-04-20T01:24:27.857Z,4.03
2023-04-20T01:26:54.837Z,5.07
2023-04-20T01:29:21.708Z,3.60
2023-04-20T01:31:48.604Z,4.53
2023-04-20T01:34:17.561Z,6.13
2023-04-20T01:36:45.222Z,4.17
2023-04-20T01:39:12.700Z,4.10
2023-04-20T01:41:40.021Z,4.07
2023-04-20T01:44:06.923Z,5.18
2023-04-20T01:46:36.670Z,4.25
2023-04-20T01:49:03.613Z,4.13
2023-04-20T01:51:30.415Z,4.88
2023-04-20T01:53:57.317Z,4.93
2023-04-20T01:56:24.255Z,3.60
2023-04-20T01:58:51.116Z,6.68
2023-04-20T02:01:18.124Z,4.93
2023-04-20T02:03:45.212Z,4.72
2023-04-20T02:06:12.420Z,4.25
2023-04-20T02:08:39.305Z,5.15
2023-04-20T02:11:06.651Z,4.00
2023-04-20T02:13:33.769Z,6.47
2023-04-20T02:16:00.695Z,3.40
2023-04-20T02:18:27.748Z,4.80
2023-04-20T02:20:54.610Z,3.88
2023-04-20T02:23:22.562Z,4.72
2023-04-20T02:25:49.448Z,5.20
2023-04-20T02:28:16.475Z,3.75
2023-04-20T02:30:43.566Z,5.55
2023-04-20T02:33:10.976Z,5.28
2023-04-20T02:35:37.831Z,6.60
2023-04-20T02:38:04.655Z,4.07
2023-04-20T02:40:31.673Z,3.20
2023-04-20T02:42:58.488Z,4.45
2023-04-20T02:45:25.300Z,3.95
2023-04-20T02:47:52.152Z,4.23
2023-04-20T02:50:19.146Z,4.28
2023-04-20T02:52:45.951Z,4.10
2023-04-20T02:55:12.794Z,4.40
2023-04-20T02:57:39.601Z,5.50
2023-04-20T03:00:08.887Z,3.63
2023-04-20T03:02:37.692Z,4.93
2023-04-20T03:05:05.175Z,3.67
2023-04-20T03:07:32.268Z,4.35
2023-04-20T03:09:59.457Z,5.57
2023-04-20T03:12:26.706Z,7.55
2023-04-20T03:14:53.640Z,5.85
2023-04-20T03:17:20.543Z,7.43
2023-04-20T03:19:47.420Z,7.97
2023-04-20T03:22:14.466Z,7.90
2023-04-20T03:24:41.386Z,8.45
2023-04-20T03:27:08.235Z,11.20
2023-04-20T03:29:35.078Z,7.53
2023-04-20T03:32:01.934Z,8.73
2023-04-20T03:34:28.802Z,7.20
2023-04-20T03:36:55.609Z,7.32
2023-04-20T03:39:22.486Z,8.02
2023-04-20T03:41:49.281Z,7.10
2023-04-20T03:44:16.862Z,5.13
2023-04-20T03:46:43.720Z,6.32
2023-04-20T03:49:10.651Z,7.22
2023-04-20T03:51:37.561Z,5.67
2023-04-20T03:54:05.956Z,5.22
2023-04-20T03:56:32.904Z,8.50
2023-04-20T03:58:59.750Z,5.05
2023-04-20T04:01:27.030Z,5.00
2023-04-20T04:03:54.074Z,5.85
2023-04-20T04:06:21.480Z,10.65
2023-04-20T04:08:48.384Z,7.32
2023-04-20T04:11:15.231Z,7.57
2023-04-20T04:13:42.021Z,6.10
2023-04-20T04:16:10.028Z,7.03
2023-04-20T04:18:37.107Z,8.02
2023-04-20T04:21:04.242Z,9.82
2023-04-20T04:23:31.278Z,7.30
2023-04-20T04:25:58.818Z,8.13
2023-04-20T04:28:25.716Z,6.50
2023-04-20T04:30:54.225Z,6.75
2023-04-20T04:33:21.915Z,7.88
2023-04-20T04:35:49.565Z,23.02
2023-04-20T04:38:16.430Z,10.93
2023-04-20T04:40:45.693Z,8.98
2023-04-20T04:43:12.535Z,15.18
2023-04-20T04:45:40.977Z,11.63
2023-04-20T04:48:12.187Z,5.97
2023-04-20T04:50:39.740Z,7.97
2023-04-20T04:53:06.881Z,8.50
2023-04-20T04:55:33.908Z,7.80
2023-04-20T04:58:01.708Z,24.52
2023-04-20T05:00:29.398Z,17.25
2023-04-20T05:02:56.739Z,17.80
2023-04-20T05:05:25.476Z,9.00
2023-04-20T05:07:52.467Z,9.03
2023-04-20T05:10:19.445Z,19.17
2023-04-20T05:12:46.382Z,7.73
2023-04-20T05:15:13.222Z,5.53
2023-04-20T05:17:40.147Z,9.37
2023-04-20T05:20:10.746Z,29.38
2023-04-20T05:22:38.484Z,9.20
2023-04-20T05:25:06.678Z,9.87
2023-04-20T05:27:34.116Z,8.00
2023-04-20T05:30:16.580Z,17.40
2023-04-20T05:32:50.696Z,21.75
2023-04-20T05:35:18.189Z,10.80
2023-04-20T05:37:45.092Z,17.80
2023-04-20T05:40:12.125Z,18.98
2023-04-20T05:42:39.086Z,7.32
2023-04-20T05:45:06.437Z,7.57
2023-04-20T05:47:33.450Z,15.83
2023-04-20T05:50:00.368Z,15.35
2023-04-20T05:52:27.612Z,12.03
2023-04-20T05:54:54.431Z,15.82
2023-04-20T05:57:23.096Z,21.55
2023-04-20T05:59:50.612Z,11.82
2023-04-20T06:02:17.542Z,10.95
2023-04-20T06:04:44.740Z,13.23
2023-04-20T06:07:11.711Z,25.08
2023-04-20T06:09:38.668Z,11.15
2023-04-20T06:12:05.930Z,25.85
2023-04-20T06:14:32.770Z,11.02
2023-04-20T06:16:59.598Z,15.85
2023-04-20T06:19:26.463Z,8.77
2023-04-20T06:21:53.322Z,10.95
2023-04-20T06:24:20.368Z,15.20
2023-04-20T06:26:47.328Z,9.05
2023-04-20T06:29:14.125Z,10.05
2023-04-20T06:31:41.065Z,11.40
2023-04-20T06:34:07.958Z,10.07
2023-04-20T06:36:34.892Z,10.52
2023-04-20T06:39:01.866Z,6.03
2023-04-20T06:41:28.800Z,7.80
2023-04-20T06:43:55.602Z,7.35
2023-04-20T06:46:22.489Z,5.30
2023-04-20T06:48:49.386Z,6.82
2023-04-20T06:51:16.418Z,5.90
2023-04-20T06:53:43.322Z,5.95
2023-04-20T06:56:11.409Z,4.88
2023-04-20T06:58:38.317Z,5.00
2023-04-20T07:01:05.511Z,5.65
2023-04-20T07:03:32.752Z,6.50
2023-04-20T07:05:59.774Z,4.47
2023-04-20T07:08:26.630Z,6.75
2023-04-20T07:10:53.453Z,9.87
2023-04-20T07:13:20.378Z,9.50
2023-04-20T07:15:47.361Z,13.87
2023-04-20T07:18:14.369Z,9.82
2023-04-20T07:20:41.258Z,5.32
2023-04-20T07:23:08.168Z,5.07
2023-04-20T07:25:35.073Z,16.15
2023-04-20T07:28:02.119Z,11.77
2023-04-20T07:30:29.132Z,11.27
2023-04-20T07:32:56.076Z,11.32
2023-04-20T07:35:23.209Z,13.05
2023-04-20T07:37:50.005Z,7.57
2023-04-20T07:40:17.049Z,5.93
2023-04-20T07:42:43.987Z,25.85
2023-04-20T07:45:12.725Z,13.88
2023-04-20T07:47:39.938Z,13.85
2023-04-20T07:50:07.723Z,7.47
2023-04-20T07:52:35.771Z,6.63
2023-04-20T07:55:02.743Z,8.40
2023-04-20T07:57:30.030Z,9.75
2023-04-20T07:59:57.066Z,7.18
2023-04-20T08:02:24.495Z,7.35
2023-04-20T08:04:52.949Z,9.53
2023-04-20T08:07:20.072Z,25.92
2023-04-20T08:09:46.962Z,20.92
2023-04-20T08:12:13.744Z,15.82
2023-04-20T08:14:41.391Z,15.15
2023-04-20T08:17:08.415Z,11.15
2023-04-20T08:19:35.320Z,10.73
2023-04-20T08:22:02.311Z,8.25
2023-04-20T08:24:30.319Z,8.60
2023-04-20T08:26:59.228Z,7.95
2023-04-20T08:29:26.540Z,16.55
2023-04-20T08:31:53.632Z,11.00
2023-04-20T08:34:20.583Z,12.07
2023-04-20T08:36:47.561Z,15.25
2023-04-20T08:39:19.324Z,15.03
2023-04-20T08:41:48.046Z,7.07
2023-04-20T08:44:15.250Z,4.97
2023-04-20T08:46:47.005Z,5.63
2023-04-20T08:49:16.292Z,6.05
2023-04-20T08:51:44.631Z,4.73
2023-04-20T08:54:12.549Z,17.50
2023-04-20T08:56:42.156Z,23.98
2023-04-20T08:59:12.939Z,20.23
2023-04-20T09:01:41.891Z,10.00
2023-04-20T09:04:26.835Z,5.13
2023-04-20T09:06:56.134Z,4.65
2023-04-20T09:09:25.295Z,10.07
2023-04-20T09:12:02.896Z,5.22
2023-04-20T09:14:30.684Z,4.28
2023-04-20T09:17:05.190Z,5.15
2023-04-20T09:19:32.302Z,4.22
2023-04-20T09:22:06.647Z,5.60
2023-04-20T09:24:35.460Z,3.92
2023-04-20T09:27:19.032Z,2.92
2023-04-20T09:29:57.928Z,6.22
2023-04-20T09:32:26.369Z,3.40
2023-04-20T09:34:53.550Z,4.68
2023-04-20T09:37:20.709Z,3.50
2023-04-20T09:39:47.559Z,5.23
2023-04-20T09:42:16.175Z,4.30
2023-04-20T09:44:43.507Z,4.10
2023-04-20T09:47:21.446Z,3.53
2023-04-20T09:49:48.499Z,3.90
2023-04-20T09:54:46.554Z,4.35
2023-04-20T09:57:14.866Z,2.72
2023-04-20T09:59:44.309Z,3.53
2023-04-20T10:02:13.249Z,4.28
2023-04-20T10:04:56.751Z,5.03
2023-04-20T10:07:28.294Z,4.70
2023-04-20T10:10:05.239Z,4.45
2023-04-20T10:12:32.799Z,4.13
2023-04-20T10:15:01.321Z,4.10
2023-04-20T10:17:32.715Z,11.35
2023-04-20T10:19:59.716Z,13.20
2023-04-20T10:22:34.169Z,7.87
2023-04-20T10:25:02.328Z,10.75
2023-04-20T10:27:32.235Z,7.30
2023-04-20T10:30:09.941Z,4.75
2023-04-20T10:32:37.322Z,5.57
2023-04-20T10:35:08.851Z,7.93
2023-04-20T10:37:36.405Z,4.78
2023-04-20T10:40:07.532Z,7.18
2023-04-20T10:42:44.987Z,5.72
2023-04-20T10:45:13.099Z,5.13
2023-04-20T10:47:45.533Z,6.73
2023-04-20T10:50:14.127Z,7.53
2023-04-20T10:52:42.526Z,18.17
2023-04-20T10:55:20.335Z,11.38
2023-04-20T10:57:47.673Z,9.50
2023-04-20T11:00:17.613Z,7.83
2023-04-20T11:03:03.387Z,7.75
2023-04-20T11:05:31.047Z,8.80
2023-04-20T11:07:59.256Z,6.47
2023-04-20T11:10:38.098Z,9.30
2023-04-20T11:13:05.158Z,8.00
2023-04-20T11:15:36.278Z,16.60
2023-04-20T11:18:11.999Z,9.10
2023-04-20T11:20:53.204Z,9.93
2023-04-20T11:23:25.411Z,8.95
2023-04-20T11:25:54.094Z,17.97
2023-04-20T11:28:21.009Z,14.70
2023-04-20T11:30:49.719Z,14.75
2023-04-20T11:33:28.174Z,19.88
2023-04-20T11:35:57.153Z,8.15
2023-04-20T11:38:31.943Z,5.00
2023-04-20T11:41:04.439Z,7.30
2023-04-20T11:43:32.707Z,19.95
2023-04-20T11:48:32.986Z,6.90
2023-04-20T11:50:59.792Z,5.18
2023-04-20T11:53:26.816Z,4.50
2023-04-20T11:55:53.737Z,8.13
2023-04-20T11:58:20.648Z,8.60
2023-04-20T12:00:47.577Z,8.60
2023-04-20T12:03:14.725Z,7.38
2023-04-20T12:05:43.280Z,8.60
2023-04-20T12:08:10.323Z,5.55
2023-04-20T12:10:37.286Z,4.78
2023-04-20T12:13:04.153Z,6.45
2023-04-20T12:15:31.127Z,5.32
2023-04-20T12:17:58.235Z,7.03
2023-04-20T12:20:25.144Z,6.75
2023-04-20T12:22:52.029Z,4.43
2023-04-20T12:25:18.844Z,5.00
2023-04-20T12:27:46.426Z,7.47
2023-04-20T12:30:15.901Z,6.33
2023-04-20T12:32:42.747Z,4.50
2023-04-20T12:35:09.782Z,5.30
2023-04-20T12:37:36.887Z,5.30
2023-04-20T12:40:06.396Z,6.90
2023-04-20T12:42:33.285Z,7.05
2023-04-20T12:45:00.151Z,19.20
2023-04-20T12:47:27.082Z,10.00
2023-04-20T12:49:55.111Z,8.02
2023-04-20T12:52:22.050Z,5.68
2023-04-20T12:54:49.964Z,4.38
2023-04-20T12:57:17.078Z,5.20
2023-04-20T12:59:44.020Z,6.38
2023-04-20T13:02:11.386Z,10.88
2023-04-20T13:04:38.656Z,12.25
2023-04-20T13:07:06.158Z,6.22
2023-04-20T13:09:33.066Z,7.57
2023-04-20T13:12:00.070Z,3.30
2023-04-20T13:14:27.025Z,6.50
2023-04-20T13:16:55.361Z,5.30
2023-04-20T13:19:22.656Z,4.50
2023-04-20T13:21:49.712Z,6.13
2023-04-20T13:26:43.571Z,4.53
2023-04-20T13:29:10.520Z,9.73
2023-04-20T13:31:37.688Z,7.25
2023-04-20T13:34:04.929Z,7.83
2023-04-20T13:36:32.795Z,14.75
2023-04-20T13:39:00.975Z,9.35
2023-04-20T13:41:27.825Z,7.25
2023-04-20T13:43:54.795Z,5.22
2023-04-20T13:46:21.706Z,5.80
2023-04-20T13:48:48.576Z,6.85
2023-04-20T13:51:15.556Z,6.35
2023-04-20T13:53:42.546Z,6.35
2023-04-20T13:56:09.722Z,10.48
2023-04-20T13:58:37.077Z,5.57
2023-04-20T14:01:12.887Z,2.78
2023-04-20T14:03:39.901Z,7.97
2023-04-20T14:06:06.971Z,6.72
2023-04-20T14:08:34.011Z,4.07
2023-04-20T14:11:01.237Z,10.07
2023-04-20T14:13:28.249Z,3.45
2023-04-20T14:15:55.264Z,3.77
2023-04-20T14:18:22.174Z,5.60
2023-04-20T14:20:52.363Z,3.37
2023-04-20T14:23:19.670Z,4.57
2023-04-20T14:25:46.747Z,3.58
2023-04-20T14:28:15.173Z,5.35
2023-04-20T14:30:43.341Z,4.82
2023-04-20T14:33:10.772Z,5.00
2023-04-20T14:35:37.636Z,7.13
2023-04-20T14:38:04.726Z,6.30
2023-04-20T14:40:32.201Z,6.73
2023-04-20T14:42:59.025Z,6.87
2023-04-20T14:45:26.045Z,5.25
2023-04-20T14:47:57.148Z,4.00
2023-04-20T14:50:27.758Z,4.55
2023-04-20T14:52:55.736Z,5.22
2023-04-20T14:55:25.776Z,4.53
2023-04-20T14:57:57.620Z,5.10
2023-04-20T15:00:28.503Z,5.20
2023-04-20T15:02:59.463Z,4.07
2023-04-20T15:05:27.375Z,11.70
2023-04-20T15:07:56.092Z,9.77
2023-04-20T15:10:23.652Z,9.97
2023-04-20T15:12:50.696Z,4.73
2023-04-20T15:15:17.672Z,10.15
2023-04-20T15:17:46.494Z,3.78
2023-04-20T15:20:15.428Z,4.45
2023-04-20T15:22:42.579Z,5.53
2023-04-20T15:25:09.907Z,7.75
2023-04-20T15:27:36.885Z,3.90
2023-04-20T15:30:04.462Z,5.80
2023-04-20T15:32:33.750Z,2.83
2023-04-20T15:35:01.150Z,3.20
2023-04-20T15:37:28.475Z,6.22
2023-04-20T15:39:56.026Z,3.70
2023-04-20T15:42:23.185Z,3.50
2023-04-20T15:44:50.058Z,5.07
2023-04-20T15:47:16.970Z,4.63
2023-04-20T15:49:44.075Z,7.45
2023-04-20T15:52:11.184Z,3.57
2023-04-20T15:54:38.594Z,3.97
2023-04-20T15:57:05.468Z,2.30
2023-04-20T15:59:32.493Z,4.57
2023-04-20T16:01:59.540Z,3.92
2023-04-20T16:04:27.000Z,3.08
2023-04-20T16:06:53.987Z,4.30
2023-04-20T16:09:23.403Z,4.30
2023-04-20T16:11:50.717Z,4.85
2023-04-20T16:14:17.916Z,4.00
2023-04-20T16:16:45.044Z,5.40
2023-04-20T16:19:13.748Z,4.22
2023-04-20T16:21:41.037Z,3.65
2023-04-20T16:24:08.119Z,3.20
2023-04-20T16:26:34.980Z,3.50
2023-04-20T16:29:02.096Z,3.15
2023-04-20T16:31:29.736Z,5.25
2023-04-20T16:33:58.653Z,2.42
2023-04-20T16:36:26.433Z,5.70
2023-04-20T16:38:53.319Z,3.60
2023-04-20T16:41:20.431Z,3.40
2023-04-20T16:43:47.361Z,2.95
2023-04-20T16:46:16.368Z,2.28
2023-04-20T16:48:43.412Z,4.50
2023-04-20T16:51:10.572Z,2.30
2023-04-20T16:53:37.371Z,4.07
2023-04-20T16:56:04.260Z,2.65
2023-04-20T16:58:31.584Z,4.07
2023-04-20T17:00:58.567Z,2.55
2023-04-20T17:03:25.722Z,3.47
2023-04-20T17:05:52.790Z,1.98
2023-04-20T17:08:20.598Z,2.65
2023-04-20T17:10:47.459Z,3.30
2023-04-20T17:13:14.382Z,1.88
2023-04-20T17:15:42.772Z,2.73
2023-04-20T17:18:11.508Z,1.70
2023-04-20T17:20:38.415Z,3.60
2023-04-20T17:23:05.301Z,2.30
2023-04-20T17:25:32.206Z,1.75
2023-04-20T17:27:59.140Z,3.20
2023-04-20T17:30:26.133Z,1.73
2023-04-20T17:32:53.393Z,3.67
2023-04-20T17:35:20.447Z,2.83
2023-04-20T17:37:47.233Z,3.25
2023-04-20T17:40:14.045Z,2.65
2023-04-20T17:42:40.974Z,2.72
2023-04-20T17:45:08.093Z,2.78
2023-04-20T17:47:35.010Z,3.30
2023-04-20T17:50:01.973Z,5.18
2023-04-20T17:52:28.947Z,1.80
2023-04-20T17:54:56.066Z,2.00
2023-04-20T17:57:23.122Z,2.67
2023-04-20T17:59:50.757Z,2.60
2023-04-20T18:02:18.065Z,2.65
2023-04-20T18:04:45.247Z,2.20
2023-04-20T18:07:13.568Z,3.85
2023-04-20T18:09:40.360Z,2.08
2023-04-20T18:12:08.635Z,2.17
2023-04-20T18:14:35.588Z,3.00
2023-04-20T18:17:02.762Z,1.52
2023-04-20T18:19:29.822Z,2.70
2023-04-20T18:21:56.704Z,2.45
2023-04-20T18:24:23.510Z,3.15
2023-04-20T18:26:50.755Z,2.30
2023-04-20T18:29:17.663Z,3.03
2023-04-20T18:31:50.003Z,2.47
2023-04-20T18:34:17.131Z,2.50
2023-04-20T18:36:44.103Z,3.25
2023-04-20T18:39:11.124Z,2.38
2023-04-20T18:41:38.535Z,1.73
2023-04-20T18:44:05.667Z,3.27
2023-04-20T18:46:32.555Z,3.17
2023-04-20T18:48:59.413Z,4.40
2023-04-20T18:51:26.322Z,2.30
2023-04-20T18:53:53.190Z,2.78
2023-04-20T18:56:20.187Z,1.07
2023-04-20T18:58:47.040Z,2.78
2023-04-20T19:01:14.032Z,1.60
2023-04-20T19:03:41.002Z,2.80
2023-04-20T19:06:07.953Z,2.40
2023-04-20T19:08:35.019Z,2.33
2023-04-20T19:11:01.873Z,2.50
2023-04-20T19:13:28.704Z,2.15
2023-04-20T19:15:59.111Z,3.95
2023-04-20T19:18:26.932Z,3.47
2023-04-20T19:20:54.675Z,3.17
2023-04-20T19:23:22.206Z,2.75
2023-04-20T19:25:49.047Z,2.03
2023-04-20T19:28:15.942Z,2.13
2023-04-20T19:30:42.867Z,4.07
2023-04-20T19:33:09.727Z,3.07
2023-04-20T19:35:36.763Z,3.80
2023-04-20T19:38:03.740Z,4.18
2023-04-20T19:40:30.629Z,2.80
2023-04-20T19:42:57.469Z,2.95
2023-04-20T19:45:24.313Z,4.67
2023-04-20T19:47:51.976Z,3.20
2023-04-20T19:50:19.172Z,3.85
2023-04-20T19:52:46.191Z,3.55
2023-04-20T19:55:13.343Z,2.03
2023-04-20T19:57:40.257Z,2.97
2023-04-20T20:00:08.818Z,1.52
2023-04-20T20:02:37.530Z,3.13
2023-04-20T20:05:05.997Z,1.83
2023-04-20T20:07:33.348Z,2.33
2023-04-20T20:10:00.534Z,3.50
2023-04-20T20:12:27.412Z,13.60
2023-04-20T20:14:54.239Z,15.13
2023-04-20T20:17:21.194Z,3.50
2023-04-20T20:19:49.893Z,3.22
2023-04-20T20:22:16.875Z,2.63
2023-04-20T20:24:47.899Z,5.05
2023-04-20T20:27:14.754Z,3.13
2023-04-20T20:29:41.627Z,3.72
2023-04-20T20:32:08.445Z,3.83
2023-04-20T20:34:35.249Z,2.42
2023-04-20T20:37:04.425Z,2.75
2023-04-20T20:39:32.435Z,2.28
2023-04-20T20:41:59.730Z,1.30
2023-04-20T20:44:27.957Z,2.28
2023-04-20T20:46:54.885Z,3.67
2023-04-20T20:49:21.753Z,3.42
2023-04-20T20:51:48.628Z,3.38
2023-04-20T20:54:15.583Z,2.63
2023-04-20T20:56:43.624Z,1.50
2023-04-20T20:59:10.756Z,3.85
2023-04-20T21:01:37.708Z,2.37
2023-04-20T21:04:04.834Z,2.60
2023-04-20T21:06:33.651Z,2.58
2023-04-20T21:09:01.052Z,2.72
2023-04-20T21:11:27.908Z,1.83
2023-04-20T21:13:56.439Z,4.47
2023-04-20T21:16:23.552Z,1.77
2023-04-20T21:18:50.575Z,1.20
2023-04-20T21:21:17.440Z,2.38
2023-04-20T21:23:44.419Z,1.77
2023-04-20T21:26:11.367Z,2.05
2023-04-20T21:28:38.491Z,1.60
2023-04-20T21:31:05.484Z,2.33
2023-04-20T21:33:34.722Z,2.77
2023-04-20T21:36:01.782Z,1.52
2023-04-20T21:38:28.775Z,2.45
2023-04-20T21:40:55.572Z,1.92
2023-04-20T21:43:22.452Z,3.17
2023-04-20T21:45:50.906Z,3.63
2023-04-20T21:48:18.300Z,1.35
2023-04-20T21:50:45.161Z,2.85
2023-04-20T21:53:12.092Z,2.92
2023-04-20T21:55:38.976Z,1.97
2023-04-20T21:58:05.922Z,2.92
2023-04-20T22:00:32.748Z,2.88
2023-04-20T22:02:59.743Z,2.72
2023-04-20T22:05:27.861Z,1.35
2023-04-20T22:07:55.463Z,2.50
2023-04-20T22:10:23.974Z,1.30
2023-04-20T22:12:51.056Z,1.67
2023-04-20T22:15:18.158Z,2.80
2023-04-20T22:17:48.476Z,3.15
2023-04-20T22:20:16.910Z,2.10
2023-04-20T22:22:43.759Z,2.53
2023-04-20T22:25:10.645Z,2.83
2023-04-20T22:27:38.572Z,1.85
2023-04-20T22:30:08.795Z,1.75
2023-04-20T22:32:36.882Z,3.03
2023-04-20T22:35:04.879Z,1.92
2023-04-20T22:37:31.804Z,1.58
2023-04-20T22:39:58.701Z,2.17
2023-04-20T22:42:25.996Z,3.35
2023-04-20T22:44:52.876Z,1.90
2023-04-20T22:47:19.753Z,2.85
2023-04-20T22:49:46.782Z,2.15
2023-04-20T22:52:13.712Z,2.60
2023-04-20T22:54:40.666Z,2.30
2023-04-20T22:57:07.557Z,1.60
2023-04-20T22:59:34.426Z,3.00
2023-04-20T23:02:01.503Z,3.08
2023-04-20T23:04:28.363Z,1.40
2023-04-20T23:06:56.444Z,2.53
2023-04-20T23:09:23.544Z,4.65
2023-04-20T23:11:50.905Z,2.50
2023-04-20T23:14:17.738Z,2.23
2023-04-20T23:16:44.610Z,2.30
2023-04-20T23:19:11.730Z,1.75
2023-04-20T23:21:38.603Z,2.33
2023-04-20T23:24:05.592Z,0.90
2023-04-20T23:26:32.427Z,1.07
2023-04-20T23:28:59.452Z,2.58
2023-04-20T23:31:26.356Z,2.38
2023-04-20T23:33:53.321Z,3.03
2023-04-20T23:36:20.569Z,1.40
2023-04-20T23:38:47.364Z,1.35
2023-04-20T23:41:15.686Z,1.67
2023-04-20T23:43:42.622Z,2.67
2023-04-20T23:46:09.563Z,2.05
2023-04-20T23:48:36.454Z,1.92
2023-04-20T23:51:03.419Z,2.28
2023-04-20T23:53:30.349Z,6.40
2023-04-20T23:55:57.204Z,2.20
2023-04-20T23:58:27.879Z,2.67
